Time;durP1;ratioP1;P1;durP2;ratioP2;P2;SDS_P1;SDS_P2;PMS_P1;PMS_P2;Temp;Humidity;BMP_temperature;BMP_pressure;BME280_temperature;BME280_humidity;BME280_pressure;Samples;Min_cycle;Max_cycle;Signal;HPM_P1;HPM_P2
2022/10/27 00:00:44;;;;;;;15.45;13.25;;;;;;;9.19;94.48;100244.06;1669286;85;21132;-65
2022/10/27 00:03:14;;;;;;;19.15;14.50;;;;;;;9.21;94.49;100244.00;1677689;84;20911;-64
2022/10/27 00:05:41;;;;;;;17.40;14.78;;;;;;;9.22;94.52;100241.81;1652030;86;21563;-64
2022/10/27 00:08:14;;;;;;;18.37;14.33;;;;;;;9.24;94.66;100245.66;1665429;84;21570;-65
2022/10/27 00:10:41;;;;;;;16.25;14.35;;;;;;;9.25;94.64;100244.77;1670007;85;21050;-64
2022/10/27 00:13:08;;;;;;;16.32;14.30;;;;;;;9.28;94.73;100244.66;1676969;84;21064;-64
2022/10/27 00:15:34;;;;;;;19.07;14.60;;;;;;;9.31;94.91;100252.38;1632730;86;21079;-64
2022/10/27 00:18:01;;;;;;;17.23;14.83;;;;;;;9.36;94.65;100250.47;1662202;85;21498;-64
2022/10/27 00:20:27;;;;;;;16.87;14.07;;;;;;;9.34;94.71;100257.48;1647959;85;20974;-64
2022/10/27 00:22:54;;;;;;;19.60;14.57;;;;;;;9.36;94.73;100253.08;1670416;83;21095;-64
2022/10/27 00:25:21;;;;;;;17.50;14.53;;;;;;;9.33;94.73;100258.40;1665135;85;21007;-64
2022/10/27 00:27:47;;;;;;;15.80;13.18;;;;;;;9.32;94.88;100261.88;1632558;84;21051;-65
2022/10/27 00:30:14;;;;;;;17.37;15.32;;;;;;;9.32;94.85;100254.06;1668351;85;21912;-64
2022/10/27 00:32:41;;;;;;;16.87;14.03;;;;;;;9.29;95.16;100258.08;1681359;83;21004;-65
2022/10/27 00:35:08;;;;;;;16.33;14.60;;;;;;;9.29;95.30;100251.56;1687091;84;21661;-64
2022/10/27 00:37:35;;;;;;;;;;;;;;;9.29;95.25;100256.78;1680193;84;21017;-65
2022/10/27 00:40:01;;;;;;;16.87;14.70;;;;;;;9.26;95.28;100258.19;1663353;84;20124;-65
2022/10/27 00:42:28;;;;;;;18.57;14.87;;;;;;;9.38;94.75;100256.46;1659708;84;21119;-64
2022/10/27 00:44:55;;;;;;;18.17;14.85;;;;;;;9.41;94.55;100256.39;1674517;84;21574;-64
2022/10/27 00:47:26;;;;;;;16.80;15.00;;;;;;;9.36;94.68;100258.30;1672694;84;21023;-64
2022/10/27 00:50:18;;;;;;;18.85;15.28;;;;;;;9.30;94.88;100257.17;1655944;85;20974;-64
2022/10/27 00:52:49;;;;;;;18.62;15.03;;;;;;;9.32;94.90;100254.06;1664899;84;21630;-65
2022/10/27 00:55:32;;;;;;;20.02;15.48;;;;;;;9.39;94.57;100254.28;1633186;86;20975;-64
2022/10/27 00:58:09;;;;;;;19.12;16.73;;;;;;;9.39;94.50;100258.19;1659249;86;21084;-65
2022/10/27 01:00:39;;;;;;;20.63;16.17;;;;;;;9.48;94.20;100261.77;1655353;84;21052;-64
2022/10/27 01:03:09;;;;;;;18.80;16.37;;;;;;;9.48;94.14;100255.26;1667100;84;21044;-65
2022/10/27 01:05:36;;;;;;;17.27;15.43;;;;;;;9.32;94.53;100251.00;1651175;86;21148;-65
2022/10/27 01:08:05;;;;;;;21.68;16.20;;;;;;;9.34;94.36;100249.66;1625916;86;21536;-65
2022/10/27 01:10:32;;;;;;;20.50;16.55;;;;;;;9.31;94.22;100241.95;1662262;86;21027;-65
2022/10/27 01:13:00;;;;;;;20.77;16.40;;;;;;;9.19;94.38;100244.52;1639164;86;24356;-65
2022/10/27 01:15:41;;;;;;;20.55;16.77;;;;;;;9.10;94.67;100246.98;1663439;86;20922;-65
2022/10/27 01:18:49;;;;;;;22.10;17.50;;;;;;;9.06;94.83;100254.48;1660931;84;21201;-65
2022/10/27 01:22:04;;;;;;;20.70;17.32;;;;;;;9.02;95.04;100252.89;1664870;84;21538;-65
2022/10/27 01:25:00;;;;;;;21.40;18.87;;;;;;;8.99;95.34;100249.09;1660212;86;21574;-65
2022/10/27 01:27:48;;;;;;;26.65;19.23;;;;;;;8.96;95.41;100253.94;1652465;85;21053;-65
2022/10/27 01:30:20;;;;;;;26.60;19.65;;;;;;;8.98;95.64;100255.64;1646667;86;21446;-65
2022/10/27 01:33:13;;;;;;;22.77;20.17;;;;;;;9.01;95.82;100255.08;1645963;85;21572;-65
2022/10/27 01:36:03;;;;;;;25.20;19.52;;;;;;;9.05;95.90;100255.85;1643236;85;22312;-66
2022/10/27 01:38:47;;;;;;;26.20;21.40;;;;;;;9.11;96.01;100253.89;1650885;85;21584;-65
2022/10/27 01:41:22;;;;;;;25.25;20.70;;;;;;;9.16;96.13;100254.59;1644596;85;21197;-65
2022/10/27 01:43:53;;;;;;;31.12;21.55;;;;;;;9.23;96.12;100250.48;1626142;86;21238;-65
2022/10/27 01:46:20;;;;;;;22.93;19.92;;;;;;;9.29;96.19;100255.02;1623065;86;21029;-65
2022/10/27 01:48:48;;;;;;;27.77;20.72;;;;;;;9.32;96.24;100253.61;1624672;86;21112;-65
2022/10/27 01:51:14;;;;;;;25.95;19.85;;;;;;;9.35;96.25;100247.45;1624358;86;21184;-65
2022/10/27 01:53:45;;;;;;;37.42;20.82;;;;;;;9.39;96.27;100255.13;1627201;88;21101;-65
2022/10/27 01:56:52;;;;;;;30.80;21.05;;;;;;;9.42;96.29;100248.95;1624846;86;21148;-65
2022/10/27 01:59:45;;;;;;;43.70;20.55;;;;;;;9.45;96.31;100252.76;1625439;88;21621;-65
2022/10/27 02:02:34;;;;;;;24.35;19.60;;;;;;;9.50;96.15;100249.55;1632121;86;21544;-65
2022/10/27 02:05:09;;;;;;;23.77;20.68;;;;;;;9.53;96.25;100253.35;1637330;86;21073;-65
2022/10/27 02:07:59;;;;;;;36.15;21.45;;;;;;;9.54;96.32;100252.44;1641651;85;20950;-65
2022/10/27 02:10:33;;;;;;;28.80;21.52;;;;;;;9.60;96.46;100257.43;1641646;86;21620;-65
2022/10/27 02:13:01;;;;;;;27.15;21.33;;;;;;;9.63;96.48;100252.14;1630151;86;21151;-65
2022/10/27 02:15:39;;;;;;;;;;;;;;;9.63;96.49;100254.75;1623466;86;21097;-65
2022/10/27 02:18:14;;;;;;;27.45;20.48;;;;;;;9.62;96.60;100253.02;1607680;87;20126;-65
2022/10/27 02:20:45;;;;;;;23.12;20.57;;;;;;;9.63;96.49;100247.34;1620905;87;20983;-65
2022/10/27 02:23:18;;;;;;;31.07;20.65;;;;;;;9.63;96.42;100245.62;1620285;87;20979;-66
2022/10/27 02:26:05;;;;;;;24.12;20.48;;;;;;;9.66;96.41;100247.70;1621035;87;21017;-65
2022/10/27 02:28:58;;;;;;;28.70;18.87;;;;;;;9.64;96.36;100246.00;1593648;88;21442;-65
2022/10/27 02:31:30;;;;;;;34.30;20.52;;;;;;;9.63;96.38;100246.92;1639800;86;20973;-65
2022/10/27 02:33:57;;;;;;;24.35;21.12;;;;;;;9.62;96.53;100243.89;1636703;87;21030;-65
2022/10/27 02:36:24;;;;;;;26.33;20.97;;;;;;;9.61;96.46;100238.30;1639611;86;21013;-65
2022/10/27 02:38:51;;;;;;;24.37;21.75;;;;;;;9.62;96.58;100239.14;1689420;84;21009;-65
2022/10/27 02:41:18;;;;;;;29.47;21.83;;;;;;;9.68;96.30;100237.61;1677978;84;21416;-65
2022/10/27 02:43:44;;;;;;;31.62;21.60;;;;;;;9.73;95.89;100230.48;1711142;83;21757;-65
2022/10/27 02:46:11;;;;;;;25.43;21.90;;;;;;;9.63;95.40;100219.55;1714029;82;20953;-65
2022/10/27 02:48:38;;;;;;;28.63;21.67;;;;;;;9.63;95.40;100219.55;1715208;83;21064;-65
2022/10/27 02:51:05;;;;;;;24.53;20.07;;;;;;;9.71;95.64;100235.35;1715332;82;21605;-65
2022/10/27 02:53:31;;;;;;;;;;;;;;;9.69;95.58;100239.77;1716280;82;21102;-65
2022/10/27 02:55:58;;;;;;;25.90;21.93;;;;;;;9.66;95.66;100239.88;1707307;82;20090;-68
2022/10/27 02:58:25;;;;;;;24.12;20.25;;;;;;;9.65;95.58;100242.94;1709771;82;21041;-65
2022/10/27 03:00:55;;;;;;;23.27;20.40;;;;;;;9.64;95.42;100246.00;1717653;82;21055;-65
2022/10/27 03:03:22;;;;;;;27.58;21.65;;;;;;;9.55;95.16;100246.34;1713823;83;20936;-65
2022/10/27 03:05:49;;;;;;;27.55;21.93;;;;;;;9.50;95.20;100244.34;1713139;82;22101;-65
2022/10/27 03:08:16;;;;;;;28.15;21.52;;;;;;;9.32;95.58;100243.64;1715232;82;20981;-65
2022/10/27 03:13:15;;;;;;;22.60;19.65;;;;;;;9.26;95.55;100238.64;1860949;76;21862;-65
2022/10/27 03:15:44;;;;;;;26.52;18.92;;;;;;;9.08;95.61;100244.88;1818572;77;20955;-65
2022/10/27 03:18:11;;;;;;;25.52;19.35;;;;;;;8.95;96.23;100247.47;1819791;77;21082;-67
2022/10/27 03:20:38;;;;;;;19.87;17.73;;;;;;;8.90;96.42;100241.55;1811846;77;20944;-65
2022/10/27 03:23:04;;;;;;;23.70;19.17;;;;;;;8.86;96.46;100236.05;1820012;78;20991;-66
2022/10/27 03:25:31;;;;;;;24.50;18.65;;;;;;;8.80;96.45;100242.77;1814224;78;21601;-65
2022/10/27 03:27:58;;;;;;;21.65;18.75;;;;;;;8.73;96.56;100242.93;1812486;78;20927;-66
2022/10/27 03:30:24;;;;;;;23.00;18.70;;;;;;;8.72;96.52;100243.84;1816096;78;23380;-65
2022/10/27 03:32:52;;;;;;;23.73;19.60;;;;;;;8.69;96.32;100249.14;1820540;77;20901;-64
2022/10/27 03:35:19;;;;;;;20.75;18.52;;;;;;;8.60;96.46;100249.44;1819966;78;21573;-67
2022/10/27 03:37:54;;;;;;;23.20;18.42;;;;;;;8.55;96.40;100256.53;1814914;77;20975;-66
2022/10/27 03:40:21;;;;;;;22.73;19.05;;;;;;;8.50;96.43;100264.47;1820548;77;20907;-66
2022/10/27 03:42:48;;;;;;;23.80;19.40;;;;;;;8.38;96.87;100258.77;1815593;77;21084;-65
2022/10/27 03:45:15;;;;;;;27.98;21.55;;;;;;;8.37;96.87;100264.84;1818695;77;20970;-65
2022/10/27 03:47:41;;;;;;;24.18;20.35;;;;;;;8.35;96.77;100265.36;1817632;77;21550;-65
2022/10/27 03:50:09;;;;;;;26.70;21.93;;;;;;;8.32;96.76;100269.33;1818720;77;21062;-65
2022/10/27 03:52:35;;;;;;;;;;;;;;;8.28;96.87;100275.92;1820183;78;21048;-65
2022/10/27 03:55:02;;;;;;;21.50;18.25;;;;;;;8.24;96.92;100275.63;1821722;77;21447;-65
2022/10/27 03:57:28;;;;;;;23.00;18.20;;;;;;;8.20;96.96;100279.19;1819488;78;21564;-65
2022/10/27 03:59:55;;;;;;;27.58;20.88;;;;;;;8.16;96.87;100285.39;1817683;78;21580;-65
2022/10/27 04:02:22;;;;;;;26.07;21.33;;;;;;;8.11;96.84;100282.06;1821516;77;20990;-65
2022/10/27 04:04:48;;;;;;;18.37;16.40;;;;;;;8.07;97.01;100280.45;1788581;78;21714;-65
2022/10/27 04:07:15;;;;;;;25.35;21.12;;;;;;;8.03;97.00;100271.02;1816693;77;21116;-66
2022/10/27 04:09:42;;;;;;;31.50;20.65;;;;;;;7.98;96.92;100270.28;1816670;77;20959;-65
2022/10/27 04:12:08;;;;;;;20.60;15.10;;;;;;;7.94;96.95;100268.68;1819992;77;21022;-65
2022/10/27 04:14:35;;;;;;;19.27;16.43;;;;;;;7.90;96.96;100269.64;1816847;78;20999;-65
2022/10/27 04:17:02;;;;;;;44.27;19.35;;;;;;;7.96;96.78;100279.91;1808490;78;21715;-65
2022/10/27 04:19:28;;;;;;;41.30;19.37;;;;;;;7.88;96.89;100276.66;1819269;77;21157;-65
2022/10/27 04:21:55;;;;;;;43.20;19.90;;;;;;;7.88;96.69;100272.30;1816164;78;20896;-65
2022/10/27 04:24:22;;;;;;;27.75;12.95;;;;;;;7.90;96.59;100278.32;1820396;78;21512;-65
2022/10/27 04:26:49;;;;;;;33.53;13.35;;;;;;;7.85;96.35;100286.23;1820272;78;21030;-65
2022/10/27 04:29:15;;;;;;;22.27;14.60;;;;;;;7.78;96.22;100284.68;1821294;77;20904;-65
2022/10/27 04:31:42;;;;;;;15.85;14.13;;;;;;;7.81;95.97;100287.23;1816860;77;21066;-65
2022/10/27 04:34:09;;;;;;;15.65;12.73;;;;;;;7.81;95.68;100280.73;1815005;78;21064;-65
2022/10/27 04:36:35;;;;;;;14.57;13.03;;;;;;;7.79;95.57;100276.01;1816854;78;21081;-65
2022/10/27 04:39:02;;;;;;;20.65;16.95;;;;;;;7.64;96.05;100281.59;1818301;77;20939;-65
2022/10/27 04:41:30;;;;;;;21.03;17.80;;;;;;;7.58;96.37;100280.02;1819956;78;20994;-65
2022/10/27 04:43:57;;;;;;;20.35;17.02;;;;;;;7.53;96.58;100275.38;1816386;78;21970;-65
2022/10/27 04:46:24;;;;;;;20.12;16.10;;;;;;;7.48;96.72;100264.70;1793876;78;21319;-65
2022/10/27 04:48:50;;;;;;;17.77;15.83;;;;;;;7.48;96.59;100273.79;1819347;77;20977;-65
2022/10/27 04:51:18;;;;;;;20.97;17.25;;;;;;;7.42;96.46;100284.34;1812345;77;21070;-65
2022/10/27 04:53:45;;;;;;;22.58;16.10;;;;;;;7.38;96.72;100285.72;1813086;77;22232;-65
2022/10/27 04:56:12;;;;;;;19.30;16.27;;;;;;;7.38;96.66;100284.42;1809651;77;21924;-65
2022/10/27 04:58:38;;;;;;;18.45;15.65;;;;;;;7.36;96.63;100287.50;1804771;78;20963;-66
2022/10/27 05:01:08;;;;;;;19.98;15.72;;;;;;;7.42;96.36;100271.35;1811277;78;20995;-64
2022/10/27 05:03:34;;;;;;;20.00;16.42;;;;;;;7.40;96.55;100286.55;1815022;77;20979;-66
2022/10/27 05:06:02;;;;;;;20.45;16.67;;;;;;;7.45;96.43;100286.86;1812819;77;20983;-66
2022/10/27 05:08:29;;;;;;;18.67;15.78;;;;;;;7.45;96.34;100285.56;1806702;78;21314;-66
2022/10/27 05:10:56;;;;;;;19.85;16.52;;;;;;;7.36;96.70;100297.89;1819542;78;20996;-66
2022/10/27 05:13:23;;;;;;;22.50;17.80;;;;;;;7.34;96.90;100298.39;1816765;77;21517;-66
2022/10/27 05:15:50;;;;;;;23.20;16.95;;;;;;;7.40;96.59;100307.33;1814669;78;20996;-65
2022/10/27 05:18:17;;;;;;;18.90;16.70;;;;;;;7.36;97.04;100306.98;1814560;78;21618;-63
2022/10/27 05:20:44;;;;;;;20.88;16.25;;;;;;;7.34;97.14;100314.44;1796842;78;23186;-65
2022/10/27 05:23:11;;;;;;;16.63;14.50;;;;;;;7.34;97.12;100312.69;1817013;78;21794;-65
2022/10/27 05:25:37;;;;;;;17.25;15.43;;;;;;;7.29;96.92;100313.23;1818358;77;21554;-65
2022/10/27 05:28:10;;;;;;;17.80;15.37;;;;;;;7.26;96.70;100318.51;1822365;78;20955;-65
2022/10/27 05:30:37;;;;;;;17.70;14.90;;;;;;;7.23;96.96;100310.80;1821233;78;20995;-65
2022/10/27 05:33:04;;;;;;;22.52;15.13;;;;;;;7.33;96.58;100308.36;1814853;77;21057;-65
2022/10/27 05:35:31;;;;;;;17.15;15.00;;;;;;;7.36;96.45;100305.69;1820166;77;20967;-65
2022/10/27 05:37:58;;;;;;;19.12;14.25;;;;;;;7.28;96.95;100305.05;1816044;77;28645;-65
2022/10/27 05:40:24;;;;;;;16.10;14.40;;;;;;;7.24;97.35;100303.84;1813497;77;21044;-65
2022/10/27 05:42:54;;;;;;;22.65;17.37;;;;;;;7.32;97.15;100301.47;1815751;78;20950;-64
2022/10/27 05:45:22;;;;;;;20.05;15.23;;;;;;;7.37;96.87;100297.02;1816109;78;21512;-65
2022/10/27 05:48:01;;;;;;;25.70;17.70;;;;;;;7.47;97.00;100303.27;1818434;78;21038;-64
2022/10/27 05:50:29;;;;;;;29.10;18.40;;;;;;;7.52;97.12;100295.77;1817758;78;21511;-64
2022/10/27 05:52:56;;;;;;;;;;;;;;;7.49;97.32;100295.00;1820976;78;21067;-65
2022/10/27 05:55:23;;;;;;;23.95;18.23;;;;;;;7.54;97.59;100288.80;1816027;78;20423;-64
2022/10/27 05:58:00;;;;;;;24.65;18.87;;;;;;;7.62;97.47;100286.00;1818000;78;21083;-62
2022/10/27 06:00:31;;;;;;;28.42;19.35;;;;;;;7.65;97.32;100288.52;1821864;78;21561;-64
2022/10/27 06:03:00;;;;;;;20.60;15.75;;;;;;;7.75;97.81;100302.96;1810547;78;21148;-65
2022/10/27 06:05:29;;;;;;;17.52;13.75;;;;;;;8.11;97.79;100305.92;1814695;77;20896;-65
2022/10/27 06:07:57;;;;;;;19.02;14.03;;;;;;;8.39;97.30;100309.47;1816161;77;20935;-65
2022/10/27 06:10:26;;;;;;;16.27;13.25;;;;;;;8.64;97.04;100310.91;1817781;77;21051;-65
2022/10/27 06:13:05;;;;;;;16.67;11.95;;;;;;;8.81;96.64;100303.04;1818724;77;22359;-65
2022/10/27 06:15:33;;;;;;;14.68;10.68;;;;;;;8.87;96.36;100301.55;1827300;78;21448;-65
2022/10/27 06:18:00;;;;;;;13.60;11.00;;;;;;;8.92;96.55;100308.77;1813566;77;21043;-65
2022/10/27 06:20:27;;;;;;;12.13;9.95;;;;;;;8.99;96.08;100306.39;1822406;76;21496;-65
2022/10/27 06:22:54;;;;;;;19.92;10.38;;;;;;;9.06;96.27;100313.55;1783740;80;21081;-65
2022/10/27 06:25:20;;;;;;;12.70;10.87;;;;;;;9.15;96.16;100315.39;1748471;81;20963;-65
2022/10/27 06:27:47;;;;;;;12.43;10.13;;;;;;;9.27;96.47;100315.91;1748357;81;21064;-65
2022/10/27 06:30:13;;;;;;;11.77;10.47;;;;;;;9.39;96.43;100318.98;1759175;81;20973;-65
2022/10/27 06:32:41;;;;;;;12.85;10.53;;;;;;;9.37;96.66;100316.02;1758504;80;21576;-65
2022/10/27 06:35:09;;;;;;;14.35;11.73;;;;;;;9.38;96.71;100321.62;1781709;80;27010;-65
2022/10/27 06:37:42;;;;;;;17.80;13.75;;;;;;;9.35;96.77;100313.91;1775645;80;21005;-65
2022/10/27 06:40:11;;;;;;;30.08;20.62;;;;;;;9.29;96.79;100326.68;1779582;80;20988;-65
2022/10/27 06:42:38;;;;;;;33.13;20.80;;;;;;;9.28;96.97;100325.45;1776191;80;21488;-66
2022/10/27 06:45:08;;;;;;;26.15;19.07;;;;;;;9.29;97.21;100332.35;1779115;79;20929;-65
2022/10/27 06:47:35;;;;;;;24.25;15.40;;;;;;;9.31;97.28;100333.16;1777703;79;21065;-65
2022/10/27 06:50:02;;;;;;;19.83;14.93;;;;;;;9.35;97.51;100337.36;1776514;79;20972;-66
2022/10/27 06:52:28;;;;;;;17.15;12.58;;;;;;;9.42;97.71;100342.78;1776187;79;21571;-66
2022/10/27 06:54:55;;;;;;;13.07;11.67;;;;;;;9.48;97.60;100351.70;1779306;80;20985;-66
2022/10/27 06:57:23;;;;;;;11.60;10.28;;;;;;;9.51;97.77;100351.60;1775153;80;20969;-65
2022/10/27 06:59:49;;;;;;;12.23;9.97;;;;;;;9.57;97.75;100352.70;1777825;80;22426;-66
2022/10/27 07:02:16;;;;;;;16.07;11.05;;;;;;;9.67;98.07;100353.72;1780077;80;20981;-67
2022/10/27 07:04:43;;;;;;;12.07;10.18;;;;;;;9.73;98.14;100354.81;1776637;80;20995;-67
2022/10/27 07:07:10;;;;;;;14.58;9.70;;;;;;;9.78;98.03;100348.53;1780096;80;21497;-68
2022/10/27 07:09:36;;;;;;;13.65;10.55;;;;;;;9.84;98.12;100348.78;1776778;79;21062;-68
2022/10/27 07:12:03;;;;;;;10.80;9.68;;;;;;;9.95;98.44;100361.45;1776622;79;21734;-67
2022/10/27 07:14:30;;;;;;;11.87;10.27;;;;;;;10.15;98.76;100356.84;1775685;80;21035;-68
2022/10/27 07:16:58;;;;;;;16.07;10.47;;;;;;;10.33;98.68;100355.36;1776819;80;21585;-69
2022/10/27 07:19:25;;;;;;;10.13;9.03;;;;;;;10.41;98.38;100350.25;1772913;80;21655;-67
2022/10/27 07:21:52;;;;;;;10.70;9.20;;;;;;;10.45;98.01;100354.47;1774419;80;21058;-67
2022/10/27 07:24:18;;;;;;;12.00;10.13;;;;;;;10.44;97.72;100363.19;1778249;79;21086;-67
2022/10/27 07:26:45;;;;;;;10.60;9.50;;;;;;;10.42;97.66;100375.47;1776678;80;20978;-68
2022/10/27 07:29:11;;;;;;;10.93;8.97;;;;;;;10.48;98.09;100364.80;1781833;79;21012;-66
2022/10/27 07:31:38;;;;;;;12.15;9.63;;;;;;;10.59;98.29;100369.63;1742351;80;21807;-66
2022/10/27 07:34:05;;;;;;;10.50;9.43;;;;;;;10.80;98.75;100374.48;1775039;80;20999;-67
2022/10/27 07:36:32;;;;;;;9.93;8.93;;;;;;;11.06;99.04;100375.25;1777313;79;20982;-66
2022/10/27 07:38:59;;;;;;;11.17;9.80;;;;;;;11.30;99.09;100386.06;1772708;79;21335;-66
2022/10/27 07:41:25;;;;;;;10.70;9.30;;;;;;;11.63;99.81;100384.31;1781061;79;21126;-66
2022/10/27 07:43:52;;;;;;;11.28;10.18;;;;;;;12.05;100.00;100382.16;1774417;79;20922;-65
2022/10/27 07:46:19;;;;;;;10.27;9.17;;;;;;;12.35;99.84;100376.48;1778458;79;21593;-66
2022/10/27 07:48:46;;;;;;;12.60;8.83;;;;;;;12.64;99.47;100377.83;1778544;79;21959;-66
2022/10/27 07:51:12;;;;;;;9.88;8.13;;;;;;;12.80;99.63;100375.33;1776358;79;21009;-67
2022/10/27 07:53:40;;;;;;;10.63;7.87;;;;;;;12.90;98.63;100377.93;1782028;80;21027;-66
2022/10/27 07:56:06;;;;;;;9.33;7.95;;;;;;;12.92;98.51;100377.41;1776068;79;21063;-66
2022/10/27 07:58:33;;;;;;;9.28;7.90;;;;;;;12.95;98.87;100375.95;1772773;79;20949;-67
2022/10/27 08:01:02;;;;;;;12.18;8.10;;;;;;;13.01;98.98;100380.90;1778957;79;21044;-67
2022/10/27 08:03:30;;;;;;;11.90;8.33;;;;;;;13.06;98.91;100389.87;1773042;80;20996;-67
2022/10/27 08:06:04;;;;;;;9.85;7.60;;;;;;;13.12;98.87;100387.80;1771945;80;21514;-66
2022/10/27 08:08:31;;;;;;;9.33;7.55;;;;;;;13.15;98.87;100383.72;1776589;80;21503;-67
2022/10/27 08:10:58;;;;;;;9.53;8.58;;;;;;;13.20;98.35;100390.91;1775415;80;21009;-67
2022/10/27 08:13:25;;;;;;;7.60;6.92;;;;;;;13.13;98.11;100397.35;1770235;79;21458;-66
2022/10/27 08:15:52;;;;;;;10.28;7.85;;;;;;;13.12;98.25;100394.35;1775732;79;20970;-66
2022/10/27 08:18:18;;;;;;;10.23;8.25;;;;;;;13.06;97.97;100393.34;1743644;80;20966;-66
2022/10/27 08:20:47;;;;;;;11.03;7.12;;;;;;;13.00;97.85;100398.88;1770488;79;21050;-66
2022/10/27 08:23:16;;;;;;;9.98;7.83;;;;;;;12.98;98.12;100400.70;1747338;80;21097;-66
2022/10/27 08:25:44;;;;;;;9.95;8.45;;;;;;;13.04;98.67;100400.88;1778585;80;21715;-67
2022/10/27 08:28:12;;;;;;;9.60;8.10;;;;;;;13.12;98.73;100398.28;1771882;80;20994;-67
2022/10/27 08:30:40;;;;;;;11.20;7.90;;;;;;;13.18;98.41;100403.23;1775755;80;21031;-67
2022/10/27 08:33:09;;;;;;;12.13;7.65;;;;;;;13.24;98.54;100407.80;1763477;79;21001;-66
2022/10/27 08:35:36;;;;;;;9.05;7.47;;;;;;;13.34;98.67;100398.62;1761480;79;20978;-66
2022/10/27 08:38:15;;;;;;;9.15;7.90;;;;;;;13.46;98.80;100407.20;1775492;80;21093;-65
2022/10/27 08:41:05;;;;;;;13.55;8.10;;;;;;;13.54;98.65;100399.81;1790351;79;20968;-65
2022/10/27 08:43:49;;;;;;;9.25;7.50;;;;;;;13.61;97.93;100409.09;1762172;81;21488;-63
2022/10/27 08:46:36;;;;;;;9.50;7.80;;;;;;;13.71;98.12;100403.39;1791103;79;21601;-64
2022/10/27 08:49:04;;;;;;;;;;;;;;;13.78;98.19;100404.33;1780068;78;21061;-65
2022/10/27 08:51:34;;;;;;;8.38;7.25;;;;;;;13.88;98.11;100402.92;1772984;80;21187;-65
2022/10/27 08:54:03;;;;;;;8.95;7.40;;;;;;;13.95;97.84;100407.86;1768583;80;21798;-65
2022/10/27 08:56:39;;;;;;;10.98;7.42;;;;;;;14.02;97.87;100403.55;1796893;78;20928;-66
2022/10/27 08:59:12;;;;;;;8.43;7.15;;;;;;;14.10;98.28;100409.26;1773188;79;20999;-65
2022/10/27 09:01:44;;;;;;;14.90;7.22;;;;;;;14.33;98.30;100404.59;1786742;79;20977;-65
2022/10/27 09:04:47;;;;;;;16.05;7.03;;;;;;;14.55;98.68;100406.98;1782313;78;22133;-65
2022/10/27 09:07:24;;;;;;;11.53;7.55;;;;;;;14.67;98.09;100410.27;1784643;79;21155;-66
2022/10/27 09:10:02;;;;;;;10.10;7.08;;;;;;;14.89;98.30;100403.39;1783216;79;21016;-66
2022/10/27 09:12:58;;;;;;;9.53;7.15;;;;;;;15.00;97.93;100403.66;1784548;79;20985;-66
2022/10/27 09:15:38;;;;;;;13.98;7.95;;;;;;;15.00;97.41;100403.66;1750492;80;21105;-66
2022/10/27 09:18:38;;;;;;;9.73;7.83;;;;;;;14.97;96.96;100394.62;1765647;79;21113;-66
2022/10/27 09:21:14;;;;;;;9.40;6.90;;;;;;;15.07;97.69;100403.31;1752568;81;21578;-67
2022/10/27 09:23:52;;;;;;;14.13;7.28;;;;;;;15.34;98.26;100397.84;1758542;81;21158;-67
2022/10/27 09:26:27;;;;;;;9.33;7.42;;;;;;;15.59;98.04;100397.77;1762646;81;21004;-66
2022/10/27 09:28:54;;;;;;;9.80;7.42;;;;;;;15.76;98.23;100392.41;1789187;79;21012;-65
2022/10/27 09:31:35;;;;;;;12.78;7.40;;;;;;;15.93;97.75;100395.37;1799759;78;21151;-65
2022/10/27 09:34:19;;;;;;;11.25;8.08;;;;;;;16.07;98.13;100401.14;1793730;78;20988;-65
2022/10/27 09:36:46;;;;;;;15.28;8.23;;;;;;;16.01;97.05;100400.19;1797050;78;21416;-66
2022/10/27 09:39:13;;;;;;;9.93;7.17;;;;;;;16.07;97.37;100405.93;1794654;79;20997;-67
2022/10/27 09:41:39;;;;;;;9.35;7.20;;;;;;;16.15;97.45;100395.42;1791462;79;20949;-64
2022/10/27 09:44:17;;;;;;;9.88;7.97;;;;;;;16.10;96.89;100396.56;1781595;78;22242;-64
2022/10/27 09:46:50;;;;;;;8.23;7.22;;;;;;;16.23;97.45;100399.30;1755142;80;21617;-66
2022/10/27 09:49:19;;;;;;;8.98;7.15;;;;;;;16.47;96.93;100397.45;1753873;80;20958;-66
2022/10/27 09:51:56;;;;;;;7.00;6.28;;;;;;;16.56;96.66;100403.47;1765995;80;20954;-66
2022/10/27 09:54:33;;;;;;;11.18;6.87;;;;;;;16.58;96.57;100401.59;1775212;80;20978;-66
2022/10/27 09:57:10;;;;;;;8.23;6.75;;;;;;;16.55;96.41;100401.75;1771807;80;22280;-65
2022/10/27 09:59:38;;;;;;;10.00;7.65;;;;;;;16.51;96.33;100400.26;1784584;79;21511;-66
2022/10/27 10:02:26;;;;;;;10.50;7.25;;;;;;;16.51;96.32;100402.89;1749890;79;21546;-67
2022/10/27 10:04:54;;;;;;;9.00;6.58;;;;;;;16.54;96.28;100400.91;1795793;79;21008;-66
2022/10/27 10:07:39;;;;;;;8.05;6.62;;;;;;;16.53;96.09;100411.56;1800346;78;20890;-67
2022/10/27 10:10:31;;;;;;;12.07;7.62;;;;;;;16.50;95.89;100409.13;1791407;78;22762;-67
2022/10/27 10:13:05;;;;;;;11.18;7.28;;;;;;;16.55;96.14;100409.66;1795172;78;21565;-64
2022/10/27 10:15:37;;;;;;;12.33;7.65;;;;;;;16.63;95.87;100404.77;1798018;78;20922;-65
2022/10/27 10:18:08;;;;;;;11.73;7.17;;;;;;;16.82;96.33;100403.67;1785042;79;21047;-66
2022/10/27 10:20:41;;;;;;;10.30;7.25;;;;;;;16.89;95.68;100407.64;1784120;79;20897;-65
2022/10/27 10:23:18;;;;;;;9.93;7.37;;;;;;;16.95;95.57;100406.77;1780445;79;21060;-65
2022/10/27 10:25:48;;;;;;;9.08;7.15;;;;;;;16.92;94.55;100402.17;1784052;79;20938;-65
2022/10/27 10:28:35;;;;;;;12.80;7.90;;;;;;;16.86;94.65;100413.08;1785622;79;20961;-65
2022/10/27 10:31:06;;;;;;;10.50;7.90;;;;;;;16.80;94.66;100408.19;1782041;78;20938;-65
2022/10/27 10:33:37;;;;;;;10.70;8.53;;;;;;;16.70;94.52;100416.65;1781710;79;21507;-64
2022/10/27 10:36:31;;;;;;;16.20;8.10;;;;;;;16.62;94.38;100420.22;1775315;79;21566;-65
2022/10/27 10:38:59;;;;;;;14.60;8.28;;;;;;;16.60;94.69;100417.30;1784550;79;20977;-67
2022/10/27 10:41:28;;;;;;;11.83;8.30;;;;;;;16.54;94.48;100423.80;1787618;78;21538;-67
2022/10/27 10:44:16;;;;;;;11.28;8.03;;;;;;;16.50;94.55;100422.30;1782537;79;21016;-67
2022/10/27 10:46:55;;;;;;;15.70;8.60;;;;;;;16.49;94.66;100421.43;1784795;78;20909;-67
2022/10/27 10:49:26;;;;;;;9.20;7.97;;;;;;;16.55;94.40;100425.48;1771251;79;21391;-67
2022/10/27 10:51:57;;;;;;;12.90;8.70;;;;;;;16.62;94.62;100434.73;1777129;79;21471;-67
2022/10/27 10:54:33;;;;;;;13.40;8.90;;;;;;;16.72;94.50;100430.59;1779131;78;20999;-67
2022/10/27 10:57:01;;;;;;;9.60;8.33;;;;;;;16.73;93.94;100424.36;1785096;79;20979;-67
2022/10/27 10:59:32;;;;;;;12.80;8.95;;;;;;;16.70;93.87;100435.11;1784888;78;20974;-66
2022/10/27 11:02:19;;;;;;;10.25;8.58;;;;;;;16.71;93.96;100431.52;1782387;79;21906;-67
2022/10/27 11:04:46;;;;;;;10.78;9.00;;;;;;;16.75;93.86;100430.40;1788230;79;21007;-67
2022/10/27 11:07:33;;;;;;;13.22;9.35;;;;;;;16.82;93.44;100436.16;1783030;79;20932;-67
2022/10/27 11:10:24;;;;;;;14.10;8.88;;;;;;;16.80;93.18;100431.92;1780203;79;20954;-67
2022/10/27 11:13:19;;;;;;;10.80;9.03;;;;;;;16.77;93.14;100435.59;1786349;79;21537;-65
2022/10/27 11:15:59;;;;;;;11.95;8.25;;;;;;;16.80;93.19;100427.49;1783024;79;21049;-64
2022/10/27 11:18:52;;;;;;;12.78;9.35;;;;;;;16.77;92.88;100437.76;1788129;78;20933;-66
2022/10/27 11:21:42;;;;;;;11.08;8.63;;;;;;;16.73;92.41;100437.55;1784544;80;21069;-66
2022/10/27 11:27:38;;;;;;;15.10;9.75;;;;;;;16.78;92.88;100446.06;1840812;76;22453;-65
2022/10/27 11:30:15;;;;;;;13.88;9.65;;;;;;;16.83;92.75;100439.64;1814242;78;21004;-65
2022/10/27 11:33:21;;;;;;;13.22;9.80;;;;;;;16.93;92.66;100442.09;1816108;78;21895;-65
2022/10/27 11:36:11;;;;;;;14.23;8.90;;;;;;;17.02;92.40;100437.55;1821209;78;20993;-66
2022/10/27 11:39:07;;;;;;;14.18;8.98;;;;;;;17.06;92.11;100441.72;1820181;76;21685;-66
2022/10/27 11:42:07;;;;;;;13.60;8.17;;;;;;;17.06;91.99;100444.35;1820886;78;21012;-65
2022/10/27 11:45:05;;;;;;;13.35;7.50;;;;;;;17.05;91.74;100439.16;1735699;81;20977;-66
2022/10/27 11:47:55;;;;;;;13.98;7.03;;;;;;;17.07;91.81;100436.80;1740404;81;21932;-66